sensor_id;sensor_type;location;lat;lon;timestamp;temperature;humidity
39315;DHT22;28703;44.412;11.918;2023-02-01T00:02:06;5.60;99.90
39315;DHT22;28703;44.412;11.918;2023-02-01T00:04:32;5.50;99.90
39315;DHT22;28703;44.412;11.918;2023-02-01T00:06:57;5.50;99.90
39315;DHT22;28703;44.412;11.918;2023-02-01T00:09:24;5.40;99.90
39315;DHT22;28703;44.412;11.918;2023-02-01T00:11:50;5.40;99.90
39315;DHT22;28703;44.412;11.918;2023-02-01T00:14:15;5.40;99.90
39315;DHT22;28703;44.412;11.918;2023-02-01T00:16:42;5.30;99.90
39315;DHT22;28703;44.412;11.918;2023-02-01T00:19:13;5.40;99.90
39315;DHT22;28703;44.412;11.918;2023-02-01T00:21:40;5.30;99.90
39315;DHT22;28703;44.412;11.918;2023-02-01T00:24:06;5.30;99.90
39315;DHT22;28703;44.412;11.918;2023-02-01T00:26:38;5.20;99.90
39315;DHT22;28703;44.412;11.918;2023-02-01T00:29:09;5.20;99.90
39315;DHT22;28703;44.412;11.918;2023-02-01T00:31:36;5.20;99.90
39315;DHT22;28703;44.412;11.918;2023-02-01T00:34:02;5.30;99.90
39315;DHT22;28703;44.412;11.918;2023-02-01T00:36:29;5.20;99.90
39315;DHT22;28703;44.412;11.918;2023-02-01T00:38:55;5.30;99.90
39315;DHT22;28703;44.412;11.918;2023-02-01T00:41:21;5.30;99.90
39315;DHT22;28703;44.412;11.918;2023-02-01T00:43:50;5.30;99.90
39315;DHT22;28703;44.412;11.918;2023-02-01T00:46:17;5.30;99.90
39315;DHT22;28703;44.412;11.918;2023-02-01T00:48:44;5.30;99.90
39315;DHT22;28703;44.412;11.918;2023-02-01T00:51:13;5.30;99.90
39315;DHT22;28703;44.412;11.918;2023-02-01T00:53:39;5.20;99.90
39315;DHT22;28703;44.412;11.918;2023-02-01T00:56:06;5.20;99.90
39315;DHT22;28703;44.412;11.918;2023-02-01T00:58:33;5.20;99.90
39315;DHT22;28703;44.412;11.918;2023-02-01T01:01:06;5.20;99.90
39315;DHT22;28703;44.412;11.918;2023-02-01T01:03:35;5.20;99.90
39315;DHT22;28703;44.412;11.918;2023-02-01T01:06:08;5.20;99.90
39315;DHT22;28703;44.412;11.918;2023-02-01T01:08:35;5.20;99.90
39315;DHT22;28703;44.412;11.918;2023-02-01T01:11:12;5.20;99.90
39315;DHT22;28703;44.412;11.918;2023-02-01T01:13:39;5.20;99.90
39315;DHT22;28703;44.412;11.918;2023-02-01T01:16:07;5.10;99.90
39315;DHT22;28703;44.412;11.918;2023-02-01T01:18:34;5.10;99.90
39315;DHT22;28703;44.412;11.918;2023-02-01T01:21:01;5.00;99.90
39315;DHT22;28703;44.412;11.918;2023-02-01T01:23:27;5.00;99.90
39315;DHT22;28703;44.412;11.918;2023-02-01T01:25:54;5.00;99.90
39315;DHT22;28703;44.412;11.918;2023-02-01T01:28:20;5.00;99.90
39315;DHT22;28703;44.412;11.918;2023-02-01T01:30:46;5.00;99.90
39315;DHT22;28703;44.412;11.918;2023-02-01T01:33:12;4.90;99.90
39315;DHT22;28703;44.412;11.918;2023-02-01T01:35:38;4.90;99.90
39315;DHT22;28703;44.412;11.918;2023-02-01T01:38:04;4.90;99.90
39315;DHT22;28703;44.412;11.918;2023-02-01T01:40:31;4.80;99.90
39315;DHT22;28703;44.412;11.918;2023-02-01T01:42:57;4.80;99.90
39315;DHT22;28703;44.412;11.918;2023-02-01T01:45:32;4.80;99.90
39315;DHT22;28703;44.412;11.918;2023-02-01T01:48:03;4.80;99.90
39315;DHT22;28703;44.412;11.918;2023-02-01T01:50:38;4.80;99.90
39315;DHT22;28703;44.412;11.918;2023-02-01T01:53:08;4.80;99.90
39315;DHT22;28703;44.412;11.918;2023-02-01T01:55:37;4.80;99.90
39315;DHT22;28703;44.412;11.918;2023-02-01T01:58:08;4.80;99.90
39315;DHT22;28703;44.412;11.918;2023-02-01T02:00:35;4.80;99.90
39315;DHT22;28703;44.412;11.918;2023-02-01T02:03:27;4.80;99.90
39315;DHT22;28703;44.412;11.918;2023-02-01T02:05:57;4.80;99.90
39315;DHT22;28703;44.412;11.918;2023-02-01T02:08:25;4.90;99.90
39315;DHT22;28703;44.412;11.918;2023-02-01T02:10:52;4.80;99.90
39315;DHT22;28703;44.412;11.918;2023-02-01T02:23:46;4.70;99.90
39315;DHT22;28703;44.412;11.918;2023-02-01T02:40:36;4.90;99.90
39315;DHT22;28703;44.412;11.918;2023-02-01T02:43:47;4.90;99.90
39315;DHT22;28703;44.412;11.918;2023-02-01T02:46:27;5.00;99.90
39315;DHT22;28703;44.412;11.918;2023-02-01T02:51:56;5.00;99.90
39315;DHT22;28703;44.412;11.918;2023-02-01T02:54:46;5.00;99.90
39315;DHT22;28703;44.412;11.918;2023-02-01T02:57:41;5.00;99.90
39315;DHT22;28703;44.412;11.918;2023-02-01T03:00:31;4.90;99.90
39315;DHT22;28703;44.412;11.918;2023-02-01T03:06:22;4.80;99.90
39315;DHT22;28703;44.412;11.918;2023-02-01T03:11:33;4.70;99.90
39315;DHT22;28703;44.412;11.918;2023-02-01T03:14:21;4.70;99.90
39315;DHT22;28703;44.412;11.918;2023-02-01T03:16:51;4.60;99.90
39315;DHT22;28703;44.412;11.918;2023-02-01T03:19:35;4.60;99.90
39315;DHT22;28703;44.412;11.918;2023-02-01T03:22:06;4.60;99.90
39315;DHT22;28703;44.412;11.918;2023-02-01T03:24:54;4.50;99.90
39315;DHT22;28703;44.412;11.918;2023-02-01T03:27:42;4.50;99.90
39315;DHT22;28703;44.412;11.918;2023-02-01T03:30:36;4.50;99.90
39315;DHT22;28703;44.412;11.918;2023-02-01T03:33:06;4.40;99.90
39315;DHT22;28703;44.412;11.918;2023-02-01T03:39:01;4.30;99.90
39315;DHT22;28703;44.412;11.918;2023-02-01T03:41:40;4.30;99.90
39315;DHT22;28703;44.412;11.918;2023-02-01T03:46:59;4.20;99.90
39315;DHT22;28703;44.412;11.918;2023-02-01T03:50:17;4.10;99.90
39315;DHT22;28703;44.412;11.918;2023-02-01T03:52:47;4.10;99.90
39315;DHT22;28703;44.412;11.918;2023-02-01T03:55:15;4.10;99.90
39315;DHT22;28703;44.412;11.918;2023-02-01T03:57:48;4.10;99.90
39315;DHT22;28703;44.412;11.918;2023-02-01T04:00:19;4.00;99.90
39315;DHT22;28703;44.412;11.918;2023-02-01T04:02:50;4.10;99.90
39315;DHT22;28703;44.412;11.918;2023-02-01T04:05:34;4.10;99.90
39315;DHT22;28703;44.412;11.918;2023-02-01T04:10:48;4.00;99.90
39315;DHT22;28703;44.412;11.918;2023-02-01T04:13:14;4.00;99.90
39315;DHT22;28703;44.412;11.918;2023-02-01T04:15:40;4.00;99.90
39315;DHT22;28703;44.412;11.918;2023-02-01T04:18:24;4.00;99.90
39315;DHT22;28703;44.412;11.918;2023-02-01T04:20:50;4.00;99.90
39315;DHT22;28703;44.412;11.918;2023-02-01T04:23:35;4.00;99.90
39315;DHT22;28703;44.412;11.918;2023-02-01T04:26:03;4.00;99.90
39315;DHT22;28703;44.412;11.918;2023-02-01T04:28:30;4.00;99.90
39315;DHT22;28703;44.412;11.918;2023-02-01T04:30:56;4.00;99.90
39315;DHT22;28703;44.412;11.918;2023-02-01T04:33:22;4.00;99.90
39315;DHT22;28703;44.412;11.918;2023-02-01T04:38:52;4.00;99.90
39315;DHT22;28703;44.412;11.918;2023-02-01T04:41:20;4.00;99.90
39315;DHT22;28703;44.412;11.918;2023-02-01T04:43:49;4.00;99.90
39315;DHT22;28703;44.412;11.918;2023-02-01T04:46:15;4.00;99.90
39315;DHT22;28703;44.412;11.918;2023-02-01T04:48:42;4.00;99.90
39315;DHT22;28703;44.412;11.918;2023-02-01T04:51:11;4.00;99.90
39315;DHT22;28703;44.412;11.918;2023-02-01T04:53:37;4.00;99.90
39315;DHT22;28703;44.412;11.918;2023-02-01T04:56:21;4.00;99.90
39315;DHT22;28703;44.412;11.918;2023-02-01T04:59:06;4.00;99.90
39315;DHT22;28703;44.412;11.918;2023-02-01T05:01:51;3.90;99.90
39315;DHT22;28703;44.412;11.918;2023-02-01T05:04:17;3.90;99.90
39315;DHT22;28703;44.412;11.918;2023-02-01T05:09:29;3.80;99.90
39315;DHT22;28703;44.412;11.918;2023-02-01T05:12:13;3.70;99.90
39315;DHT22;28703;44.412;11.918;2023-02-01T05:15:16;3.70;99.90
39315;DHT22;28703;44.412;11.918;2023-02-01T05:17:42;3.70;99.90
39315;DHT22;28703;44.412;11.918;2023-02-01T05:20:09;3.60;99.90
39315;DHT22;28703;44.412;11.918;2023-02-01T05:22:54;3.60;99.90
39315;DHT22;28703;44.412;11.918;2023-02-01T05:25:20;3.70;99.90
39315;DHT22;28703;44.412;11.918;2023-02-01T05:27:45;3.60;99.90
39315;DHT22;28703;44.412;11.918;2023-02-01T05:30:49;3.60;99.90
39315;DHT22;28703;44.412;11.918;2023-02-01T05:33:14;3.70;99.90
39315;DHT22;28703;44.412;11.918;2023-02-01T05:35:40;3.60;99.90
39315;DHT22;28703;44.412;11.918;2023-02-01T05:38:24;3.60;99.90
39315;DHT22;28703;44.412;11.918;2023-02-01T05:40:50;3.60;99.90
39315;DHT22;28703;44.412;11.918;2023-02-01T05:43:35;3.60;99.90
39315;DHT22;28703;44.412;11.918;2023-02-01T05:48:45;3.50;99.90
39315;DHT22;28703;44.412;11.918;2023-02-01T05:51:30;3.50;99.90
39315;DHT22;28703;44.412;11.918;2023-02-01T05:53:56;3.50;99.90
39315;DHT22;28703;44.412;11.918;2023-02-01T05:56:40;3.50;99.90
39315;DHT22;28703;44.412;11.918;2023-02-01T05:59:06;3.50;99.90
39315;DHT22;28703;44.412;11.918;2023-02-01T06:04:19;3.40;99.90
39315;DHT22;28703;44.412;11.918;2023-02-01T06:06:48;3.40;99.90
39315;DHT22;28703;44.412;11.918;2023-02-01T06:12:19;3.30;99.90
39315;DHT22;28703;44.412;11.918;2023-02-01T06:15:07;3.30;99.90
39315;DHT22;28703;44.412;11.918;2023-02-01T06:17:51;3.30;99.90
39315;DHT22;28703;44.412;11.918;2023-02-01T06:23:52;3.20;99.90
39315;DHT22;28703;44.412;11.918;2023-02-01T06:26:19;3.20;99.90
39315;DHT22;28703;44.412;11.918;2023-02-01T06:28:45;3.20;99.90
39315;DHT22;28703;44.412;11.918;2023-02-01T06:31:12;3.20;99.90
39315;DHT22;28703;44.412;11.918;2023-02-01T06:33:59;3.20;99.90
39315;DHT22;28703;44.412;11.918;2023-02-01T06:36:25;3.20;99.90
39315;DHT22;28703;44.412;11.918;2023-02-01T06:44:38;3.10;99.90
39315;DHT22;28703;44.412;11.918;2023-02-01T06:47:04;3.20;99.90
39315;DHT22;28703;44.412;11.918;2023-02-01T06:50:08;3.20;99.90
39315;DHT22;28703;44.412;11.918;2023-02-01T06:52:52;3.30;99.90
39315;DHT22;28703;44.412;11.918;2023-02-01T06:55:18;3.20;99.90
39315;DHT22;28703;44.412;11.918;2023-02-01T06:57:47;3.30;99.90
39315;DHT22;28703;44.412;11.918;2023-02-01T07:00:13;3.30;99.90
39315;DHT22;28703;44.412;11.918;2023-02-01T07:02:39;3.30;99.90
39315;DHT22;28703;44.412;11.918;2023-02-01T07:05:05;3.30;99.90
39315;DHT22;28703;44.412;11.918;2023-02-01T07:07:31;3.30;99.90
39315;DHT22;28703;44.412;11.918;2023-02-01T07:09:57;3.40;99.90
39315;DHT22;28703;44.412;11.918;2023-02-01T07:12:23;3.40;99.90
39315;DHT22;28703;44.412;11.918;2023-02-01T07:15:07;3.30;99.90
39315;DHT22;28703;44.412;11.918;2023-02-01T07:17:55;3.30;99.90
39315;DHT22;28703;44.412;11.918;2023-02-01T07:20:22;3.40;99.90
39315;DHT22;28703;44.412;11.918;2023-02-01T07:22:48;3.40;99.90
39315;DHT22;28703;44.412;11.918;2023-02-01T07:25:34;3.40;99.90
39315;DHT22;28703;44.412;11.918;2023-02-01T07:31:08;3.40;99.90
39315;DHT22;28703;44.412;11.918;2023-02-01T07:33:34;3.50;99.90
39315;DHT22;28703;44.412;11.918;2023-02-01T07:36:03;3.50;99.90
39315;DHT22;28703;44.412;11.918;2023-02-01T07:38:29;3.60;99.90
39315;DHT22;28703;44.412;11.918;2023-02-01T07:41:00;3.70;99.90
39315;DHT22;28703;44.412;11.918;2023-02-01T07:43:27;3.70;99.90
39315;DHT22;28703;44.412;11.918;2023-02-01T07:45:54;3.80;99.90
39315;DHT22;28703;44.412;11.918;2023-02-01T07:48:21;3.80;99.90
39315;DHT22;28703;44.412;11.918;2023-02-01T07:53:33;4.00;99.90
39315;DHT22;28703;44.412;11.918;2023-02-01T07:56:00;4.10;99.90
39315;DHT22;28703;44.412;11.918;2023-02-01T07:58:27;4.10;99.90
39315;DHT22;28703;44.412;11.918;2023-02-01T08:00:53;4.30;99.90
39315;DHT22;28703;44.412;11.918;2023-02-01T08:03:38;4.40;99.90
39315;DHT22;28703;44.412;11.918;2023-02-01T08:06:23;4.40;99.90
39315;DHT22;28703;44.412;11.918;2023-02-01T08:08:51;4.50;99.90
39315;DHT22;28703;44.412;11.918;2023-02-01T08:11:18;4.60;99.90
39315;DHT22;28703;44.412;11.918;2023-02-01T08:13:44;4.70;99.90
39315;DHT22;28703;44.412;11.918;2023-02-01T08:16:29;4.80;99.90
39315;DHT22;28703;44.412;11.918;2023-02-01T08:18:55;4.90;99.90
39315;DHT22;28703;44.412;11.918;2023-02-01T08:21:26;5.00;99.90
39315;DHT22;28703;44.412;11.918;2023-02-01T08:24:06;5.00;99.90
39315;DHT22;28703;44.412;11.918;2023-02-01T08:26:32;5.10;99.90
39315;DHT22;28703;44.412;11.918;2023-02-01T08:29:00;5.20;99.90
39315;DHT22;28703;44.412;11.918;2023-02-01T08:31:45;5.20;99.90
39315;DHT22;28703;44.412;11.918;2023-02-01T08:34:12;5.40;99.90
39315;DHT22;28703;44.412;11.918;2023-02-01T08:36:38;5.50;99.90
39315;DHT22;28703;44.412;11.918;2023-02-01T08:39:04;5.50;99.90
39315;DHT22;28703;44.412;11.918;2023-02-01T08:41:34;5.60;99.90
39315;DHT22;28703;44.412;11.918;2023-02-01T08:44:00;5.50;99.90
39315;DHT22;28703;44.412;11.918;2023-02-01T08:46:27;5.60;99.90
39315;DHT22;28703;44.412;11.918;2023-02-01T08:48:53;5.60;99.90
39315;DHT22;28703;44.412;11.918;2023-02-01T08:54:41;5.70;99.90
39315;DHT22;28703;44.412;11.918;2023-02-01T08:57:07;5.80;99.90
39315;DHT22;28703;44.412;11.918;2023-02-01T08:59:35;5.80;99.90
39315;DHT22;28703;44.412;11.918;2023-02-01T09:02:20;5.90;99.90
39315;DHT22;28703;44.412;11.918;2023-02-01T09:04:46;5.90;99.90
39315;DHT22;28703;44.412;11.918;2023-02-01T09:07:11;6.00;99.90
39315;DHT22;28703;44.412;11.918;2023-02-01T09:12:41;6.10;99.90
39315;DHT22;28703;44.412;11.918;2023-02-01T09:15:08;6.00;99.90
39315;DHT22;28703;44.412;11.918;2023-02-01T09:17:53;6.00;99.90
39315;DHT22;28703;44.412;11.918;2023-02-01T09:20:19;6.10;99.90
39315;DHT22;28703;44.412;11.918;2023-02-01T09:23:08;6.10;99.90
39315;DHT22;28703;44.412;11.918;2023-02-01T09:25:53;6.20;99.90
39315;DHT22;28703;44.412;11.918;2023-02-01T09:28:19;6.20;99.90
39315;DHT22;28703;44.412;11.918;2023-02-01T09:30:45;6.20;99.90
39315;DHT22;28703;44.412;11.918;2023-02-01T09:33:19;6.20;99.90
39315;DHT22;28703;44.412;11.918;2023-02-01T09:36:05;6.30;99.90
39315;DHT22;28703;44.412;11.918;2023-02-01T09:38:31;6.30;99.90
39315;DHT22;28703;44.412;11.918;2023-02-01T09:40:58;6.30;99.90
39315;DHT22;28703;44.412;11.918;2023-02-01T09:43:52;6.30;99.90
39315;DHT22;28703;44.412;11.918;2023-02-01T09:46:39;6.40;99.90
39315;DHT22;28703;44.412;11.918;2023-02-01T09:49:18;6.30;99.90
39315;DHT22;28703;44.412;11.918;2023-02-01T09:51:49;6.40;99.90
39315;DHT22;28703;44.412;11.918;2023-02-01T09:54:42;6.50;99.90
39315;DHT22;28703;44.412;11.918;2023-02-01T09:59:47;6.60;99.90
39315;DHT22;28703;44.412;11.918;2023-02-01T10:08:50;6.80;99.90
39315;DHT22;28703;44.412;11.918;2023-02-01T10:11:32;6.90;99.90
39315;DHT22;28703;44.412;11.918;2023-02-01T10:22:40;7.10;99.90
39315;DHT22;28703;44.412;11.918;2023-02-01T10:25:31;7.10;99.90
39315;DHT22;28703;44.412;11.918;2023-02-01T10:28:00;7.20;99.90
39315;DHT22;28703;44.412;11.918;2023-02-01T10:30:43;7.30;99.90
39315;DHT22;28703;44.412;11.918;2023-02-01T10:33:33;7.30;99.90
39315;DHT22;28703;44.412;11.918;2023-02-01T10:38:50;7.30;99.90
39315;DHT22;28703;44.412;11.918;2023-02-01T10:41:19;7.30;99.90
39315;DHT22;28703;44.412;11.918;2023-02-01T10:43:50;7.30;99.90
39315;DHT22;28703;44.412;11.918;2023-02-01T10:46:17;7.40;99.90
39315;DHT22;28703;44.412;11.918;2023-02-01T10:48:43;7.40;99.90
39315;DHT22;28703;44.412;11.918;2023-02-01T10:51:15;7.50;99.90
39315;DHT22;28703;44.412;11.918;2023-02-01T10:56:48;7.40;99.90
39315;DHT22;28703;44.412;11.918;2023-02-01T10:59:34;7.50;99.90
39315;DHT22;28703;44.412;11.918;2023-02-01T11:02:32;7.50;99.90
39315;DHT22;28703;44.412;11.918;2023-02-01T11:05:03;7.70;99.90
39315;DHT22;28703;44.412;11.918;2023-02-01T11:07:31;7.60;99.90
39315;DHT22;28703;44.412;11.918;2023-02-01T11:09:58;7.70;99.90
39315;DHT22;28703;44.412;11.918;2023-02-01T11:12:35;7.70;99.90
39315;DHT22;28703;44.412;11.918;2023-02-01T11:17:55;7.90;99.90
39315;DHT22;28703;44.412;11.918;2023-02-01T11:23:32;8.00;99.90
39315;DHT22;28703;44.412;11.918;2023-02-01T11:26:39;8.00;99.90
39315;DHT22;28703;44.412;11.918;2023-02-01T11:29:12;8.10;99.90
39315;DHT22;28703;44.412;11.918;2023-02-01T11:31:39;8.20;99.90
39315;DHT22;28703;44.412;11.918;2023-02-01T11:34:16;8.20;99.90
39315;DHT22;28703;44.412;11.918;2023-02-01T11:36:46;8.30;99.90
39315;DHT22;28703;44.412;11.918;2023-02-01T11:42:12;8.40;99.90
39315;DHT22;28703;44.412;11.918;2023-02-01T11:44:43;8.50;99.90
39315;DHT22;28703;44.412;11.918;2023-02-01T11:47:29;8.50;99.90
39315;DHT22;28703;44.412;11.918;2023-02-01T11:58:40;8.70;99.90
39315;DHT22;28703;44.412;11.918;2023-02-01T12:02:01;8.80;99.90
39315;DHT22;28703;44.412;11.918;2023-02-01T12:13:55;9.00;99.90
39315;DHT22;28703;44.412;11.918;2023-02-01T12:24:44;9.30;99.90
39315;DHT22;28703;44.412;11.918;2023-02-01T12:30:27;9.40;99.90
39315;DHT22;28703;44.412;11.918;2023-02-01T12:36:49;9.50;99.90
39315;DHT22;28703;44.412;11.918;2023-02-01T12:43:11;9.60;99.90
39315;DHT22;28703;44.412;11.918;2023-02-01T12:45:43;9.70;99.90
39315;DHT22;28703;44.412;11.918;2023-02-01T12:50:55;9.70;99.90
39315;DHT22;28703;44.412;11.918;2023-02-01T12:56:49;9.80;99.90
39315;DHT22;28703;44.412;11.918;2023-02-01T13:00:06;9.90;99.90
39315;DHT22;28703;44.412;11.918;2023-02-01T13:02:52;10.00;99.90
39315;DHT22;28703;44.412;11.918;2023-02-01T13:05:28;10.00;99.90
39315;DHT22;28703;44.412;11.918;2023-02-01T13:08:02;10.10;99.90
39315;DHT22;28703;44.412;11.918;2023-02-01T13:11:00;10.20;99.90
39315;DHT22;28703;44.412;11.918;2023-02-01T13:13:56;10.30;99.90
39315;DHT22;28703;44.412;11.918;2023-02-01T13:16:52;10.30;99.90
39315;DHT22;28703;44.412;11.918;2023-02-01T13:19:50;10.40;99.90
39315;DHT22;28703;44.412;11.918;2023-02-01T13:22:43;10.40;99.90
39315;DHT22;28703;44.412;11.918;2023-02-01T13:25:46;10.50;99.90
39315;DHT22;28703;44.412;11.918;2023-02-01T13:34:54;10.70;99.90
39315;DHT22;28703;44.412;11.918;2023-02-01T13:40:16;10.90;99.90
39315;DHT22;28703;44.412;11.918;2023-02-01T13:42:50;11.00;99.90
39315;DHT22;28703;44.412;11.918;2023-02-01T13:45:20;11.10;99.90
39315;DHT22;28703;44.412;11.918;2023-02-01T13:47:50;11.20;99.90
39315;DHT22;28703;44.412;11.918;2023-02-01T13:50:31;11.30;99.90
39315;DHT22;28703;44.412;11.918;2023-02-01T13:53:18;11.30;99.90
39315;DHT22;28703;44.412;11.918;2023-02-01T13:56:23;11.40;99.90
39315;DHT22;28703;44.412;11.918;2023-02-01T14:02:45;11.60;99.90
39315;DHT22;28703;44.412;11.918;2023-02-01T14:16:38;12.10;99.90
39315;DHT22;28703;44.412;11.918;2023-02-01T14:19:09;12.10;99.90
39315;DHT22;28703;44.412;11.918;2023-02-01T14:24:39;12.40;99.90
39315;DHT22;28703;44.412;11.918;2023-02-01T14:33:25;13.00;99.90
39315;DHT22;28703;44.412;11.918;2023-02-01T14:36:38;13.30;99.90
39315;DHT22;28703;44.412;11.918;2023-02-01T14:42:21;13.90;99.90
39315;DHT22;28703;44.412;11.918;2023-02-01T14:50:57;14.70;99.90
39315;DHT22;28703;44.412;11.918;2023-02-01T14:53:33;14.90;99.90
39315;DHT22;28703;44.412;11.918;2023-02-01T14:56:18;15.20;99.90
39315;DHT22;28703;44.412;11.918;2023-02-01T14:59:12;15.40;99.90
39315;DHT22;28703;44.412;11.918;2023-02-01T15:01:48;15.60;99.90
39315;DHT22;28703;44.412;11.918;2023-02-01T15:04:17;15.80;99.90
39315;DHT22;28703;44.412;11.918;2023-02-01T15:07:07;15.80;99.90
39315;DHT22;28703;44.412;11.918;2023-02-01T15:09:54;16.00;99.90
39315;DHT22;28703;44.412;11.918;2023-02-01T15:12:25;16.20;99.90
39315;DHT22;28703;44.412;11.918;2023-02-01T15:15:23;16.10;99.90
39315;DHT22;28703;44.412;11.918;2023-02-01T15:17:57;16.20;99.90
39315;DHT22;28703;44.412;11.918;2023-02-01T15:20:42;16.40;99.90
39315;DHT22;28703;44.412;11.918;2023-02-01T15:23:16;16.60;99.90
39315;DHT22;28703;44.412;11.918;2023-02-01T15:25:46;17.00;99.90
39315;DHT22;28703;44.412;11.918;2023-02-01T15:28:16;17.20;99.90
39315;DHT22;28703;44.412;11.918;2023-02-01T15:30:54;17.10;99.90
39315;DHT22;28703;44.412;11.918;2023-02-01T15:33:20;16.90;99.90
39315;DHT22;28703;44.412;11.918;2023-02-01T15:35:54;16.60;99.90
39315;DHT22;28703;44.412;11.918;2023-02-01T15:41:19;15.90;99.90
39315;DHT22;28703;44.412;11.918;2023-02-01T15:46:45;15.10;99.90
39315;DHT22;28703;44.412;11.918;2023-02-01T15:49:36;14.70;99.90
39315;DHT22;28703;44.412;11.918;2023-02-01T15:52:08;14.60;99.90
39315;DHT22;28703;44.412;11.918;2023-02-01T15:54:45;14.40;99.90
39315;DHT22;28703;44.412;11.918;2023-02-01T15:57:20;14.30;99.90
39315;DHT22;28703;44.412;11.918;2023-02-01T15:59:48;14.10;99.90
39315;DHT22;28703;44.412;11.918;2023-02-01T16:02:34;13.90;99.90
39315;DHT22;28703;44.412;11.918;2023-02-01T16:05:05;13.70;99.90
39315;DHT22;28703;44.412;11.918;2023-02-01T16:07:33;13.50;99.90
39315;DHT22;28703;44.412;11.918;2023-02-01T16:10:02;13.40;99.90
39315;DHT22;28703;44.412;11.918;2023-02-01T16:13:03;13.20;99.90
39315;DHT22;28703;44.412;11.918;2023-02-01T16:15:29;13.00;99.90
39315;DHT22;28703;44.412;11.918;2023-02-01T16:21:00;12.80;99.90
39315;DHT22;28703;44.412;11.918;2023-02-01T16:23:27;12.50;99.90
39315;DHT22;28703;44.412;11.918;2023-02-01T16:28:40;12.30;99.90
39315;DHT22;28703;44.412;11.918;2023-02-01T16:31:14;12.10;99.90
39315;DHT22;28703;44.412;11.918;2023-02-01T16:34:04;12.00;99.90
39315;DHT22;28703;44.412;11.918;2023-02-01T16:36:33;11.80;99.90
39315;DHT22;28703;44.412;11.918;2023-02-01T16:39:19;11.70;99.90
39315;DHT22;28703;44.412;11.918;2023-02-01T16:41:46;11.50;99.90
39315;DHT22;28703;44.412;11.918;2023-02-01T16:44:13;11.40;99.90
39315;DHT22;28703;44.412;11.918;2023-02-01T16:46:43;11.30;99.90
39315;DHT22;28703;44.412;11.918;2023-02-01T16:49:20;11.20;99.90
39315;DHT22;28703;44.412;11.918;2023-02-01T16:52:05;11.10;99.90
39315;DHT22;28703;44.412;11.918;2023-02-01T16:54:35;10.90;99.90
39315;DHT22;28703;44.412;11.918;2023-02-01T16:57:01;10.90;99.90
39315;DHT22;28703;44.412;11.918;2023-02-01T16:59:27;10.80;99.90
39315;DHT22;28703;44.412;11.918;2023-02-01T17:01:54;10.70;99.90
39315;DHT22;28703;44.412;11.918;2023-02-01T17:04:20;10.60;99.90
39315;DHT22;28703;44.412;11.918;2023-02-01T17:06:46;10.60;99.90
39315;DHT22;28703;44.412;11.918;2023-02-01T17:09:34;10.50;99.90
39315;DHT22;28703;44.412;11.918;2023-02-01T17:12:02;10.50;99.90
39315;DHT22;28703;44.412;11.918;2023-02-01T17:14:31;10.30;99.90
39315;DHT22;28703;44.412;11.918;2023-02-01T17:16:58;10.30;99.90
39315;DHT22;28703;44.412;11.918;2023-02-01T17:19:25;10.20;99.90
39315;DHT22;28703;44.412;11.918;2023-02-01T17:22:10;10.20;99.90
39315;DHT22;28703;44.412;11.918;2023-02-01T17:24:36;10.10;99.90
39315;DHT22;28703;44.412;11.918;2023-02-01T17:27:21;10.00;99.90
39315;DHT22;28703;44.412;11.918;2023-02-01T17:29:47;10.00;99.90
39315;DHT22;28703;44.412;11.918;2023-02-01T17:32:22;9.90;99.90
39315;DHT22;28703;44.412;11.918;2023-02-01T17:34:48;9.80;99.90
39315;DHT22;28703;44.412;11.918;2023-02-01T17:37:26;9.80;99.90
39315;DHT22;28703;44.412;11.918;2023-02-01T17:39:53;9.70;99.90
39315;DHT22;28703;44.412;11.918;2023-02-01T17:42:38;9.60;99.90
39315;DHT22;28703;44.412;11.918;2023-02-01T17:45:37;9.60;99.90
39315;DHT22;28703;44.412;11.918;2023-02-01T17:48:24;9.50;99.90
39315;DHT22;28703;44.412;11.918;2023-02-01T17:50:51;9.40;99.90
39315;DHT22;28703;44.412;11.918;2023-02-01T17:56:13;9.40;99.90
39315;DHT22;28703;44.412;11.918;2023-02-01T17:58:59;9.30;99.90
39315;DHT22;28703;44.412;11.918;2023-02-01T18:04:16;9.30;99.90
39315;DHT22;28703;44.412;11.918;2023-02-01T18:07:02;9.30;99.90
39315;DHT22;28703;44.412;11.918;2023-02-01T18:09:28;9.20;99.90
39315;DHT22;28703;44.412;11.918;2023-02-01T18:11:57;9.10;99.90
39315;DHT22;28703;44.412;11.918;2023-02-01T18:14:23;9.10;99.90
39315;DHT22;28703;44.412;11.918;2023-02-01T18:16:50;9.10;99.90
39315;DHT22;28703;44.412;11.918;2023-02-01T18:19:16;9.10;99.90
39315;DHT22;28703;44.412;11.918;2023-02-01T18:22:22;9.10;99.90
39315;DHT22;28703;44.412;11.918;2023-02-01T18:24:49;9.00;99.90
39315;DHT22;28703;44.412;11.918;2023-02-01T18:27:16;8.90;99.90
39315;DHT22;28703;44.412;11.918;2023-02-01T18:30:00;9.00;99.90
39315;DHT22;28703;44.412;11.918;2023-02-01T18:32:46;8.90;99.90
39315;DHT22;28703;44.412;11.918;2023-02-01T18:35:50;8.90;99.90
39315;DHT22;28703;44.412;11.918;2023-02-01T18:38:17;8.90;99.90
39315;DHT22;28703;44.412;11.918;2023-02-01T18:41:06;8.80;99.90
39315;DHT22;28703;44.412;11.918;2023-02-01T18:43:34;8.80;99.90
39315;DHT22;28703;44.412;11.918;2023-02-01T18:46:00;8.80;99.90
39315;DHT22;28703;44.412;11.918;2023-02-01T18:48:26;8.70;99.90
39315;DHT22;28703;44.412;11.918;2023-02-01T18:50:53;8.70;99.90
39315;DHT22;28703;44.412;11.918;2023-02-01T18:53:38;8.60;99.90
39315;DHT22;28703;44.412;11.918;2023-02-01T18:56:04;8.60;99.90
39315;DHT22;28703;44.412;11.918;2023-02-01T19:01:36;8.50;99.90
39315;DHT22;28703;44.412;11.918;2023-02-01T19:06:46;8.40;99.90
39315;DHT22;28703;44.412;11.918;2023-02-01T19:09:12;8.40;99.90
39315;DHT22;28703;44.412;11.918;2023-02-01T19:11:57;8.30;99.90
39315;DHT22;28703;44.412;11.918;2023-02-01T19:14:23;8.30;99.90
39315;DHT22;28703;44.412;11.918;2023-02-01T19:19:37;8.30;99.90
39315;DHT22;28703;44.412;11.918;2023-02-01T19:22:03;8.20;99.90
39315;DHT22;28703;44.412;11.918;2023-02-01T19:24:29;8.10;99.90
39315;DHT22;28703;44.412;11.918;2023-02-01T19:26:56;8.10;99.90
39315;DHT22;28703;44.412;11.918;2023-02-01T19:29:22;8.10;99.90
39315;DHT22;28703;44.412;11.918;2023-02-01T19:31:49;8.10;99.90
39315;DHT22;28703;44.412;11.918;2023-02-01T19:34:15;8.10;99.90
39315;DHT22;28703;44.412;11.918;2023-02-01T19:36:41;8.10;99.90
39315;DHT22;28703;44.412;11.918;2023-02-01T19:39:09;8.10;99.90
39315;DHT22;28703;44.412;11.918;2023-02-01T19:41:35;8.10;99.90
39315;DHT22;28703;44.412;11.918;2023-02-01T19:49:34;8.10;99.90
39315;DHT22;28703;44.412;11.918;2023-02-01T19:52:06;8.20;99.90
39315;DHT22;28703;44.412;11.918;2023-02-01T19:54:35;8.20;99.90
39315;DHT22;28703;44.412;11.918;2023-02-01T19:57:13;8.20;99.90
39315;DHT22;28703;44.412;11.918;2023-02-01T20:00:42;8.30;99.90